sensor_id;sensor_type;location;lat;lon;timestamp;pressure;altitude;pressure_sealevel;temperature;humidity
42587;BME280;28216;53.362;-6.288;2023-02-28T00:00:25;103466.34;;;7.75;92.89
42587;BME280;28216;53.362;-6.288;2023-02-28T00:02:51;103467.19;;;7.75;92.98
42587;BME280;28216;53.362;-6.288;2023-02-28T00:05:21;103472.31;;;7.77;93.21
42587;BME280;28216;53.362;-6.288;2023-02-28T00:07:48;103467.19;;;7.75;93.40
42587;BME280;28216;53.362;-6.288;2023-02-28T00:10:18;103468.94;;;7.75;93.89
42587;BME280;28216;53.362;-6.288;2023-02-28T00:12:47;103466.25;;;7.76;94.04
42587;BME280;28216;53.362;-6.288;2023-02-28T00:15:13;103476.72;;;7.76;94.77
42587;BME280;28216;53.362;-6.288;2023-02-28T00:17:39;103475.00;;;7.75;95.46
42587;BME280;28216;53.362;-6.288;2023-02-28T00:20:06;103469.03;;;7.73;95.88
42587;BME280;28216;53.362;-6.288;2023-02-28T00:22:36;103472.41;;;7.75;96.54
42587;BME280;28216;53.362;-6.288;2023-02-28T00:25:02;103482.69;;;7.78;96.64
42587;BME280;28216;53.362;-6.288;2023-02-28T00:27:28;103473.19;;;7.77;96.83
42587;BME280;28216;53.362;-6.288;2023-02-28T00:29:54;103476.63;;;7.78;97.25
42587;BME280;28216;53.362;-6.288;2023-02-28T00:32:19;103479.16;;;7.79;98.02
42587;BME280;28216;53.362;-6.288;2023-02-28T00:34:45;103483.47;;;7.80;97.91
42587;BME280;28216;53.362;-6.288;2023-02-28T00:37:11;103484.41;;;7.79;98.94
42587;BME280;28216;53.362;-6.288;2023-02-28T00:39:37;103484.31;;;7.81;99.07
42587;BME280;28216;53.362;-6.288;2023-02-28T00:42:03;103485.16;;;7.81;99.08
42587;BME280;28216;53.362;-6.288;2023-02-28T00:44:30;103485.94;;;7.83;99.24
42587;BME280;28216;53.362;-6.288;2023-02-28T00:46:56;103483.31;;;7.83;99.47
42587;BME280;28216;53.362;-6.288;2023-02-28T00:49:22;103479.94;;;7.81;100.00
42587;BME280;28216;53.362;-6.288;2023-02-28T00:51:48;103487.00;;;7.79;100.00
42587;BME280;28216;53.362;-6.288;2023-02-28T00:54:13;103481.72;;;7.81;100.00
42587;BME280;28216;53.362;-6.288;2023-02-28T00:56:39;103479.09;;;7.81;100.00
42587;BME280;28216;53.362;-6.288;2023-02-28T00:59:04;103485.00;;;7.84;100.00
42587;BME280;28216;53.362;-6.288;2023-02-28T01:01:30;103489.31;;;7.85;100.00
42587;BME280;28216;53.362;-6.288;2023-02-28T01:03:56;103488.31;;;7.88;100.00
42587;BME280;28216;53.362;-6.288;2023-02-28T01:06:21;103483.03;;;7.89;100.00
42587;BME280;28216;53.362;-6.288;2023-02-28T01:08:47;103489.84;;;7.92;100.00
42587;BME280;28216;53.362;-6.288;2023-02-28T01:11:15;103494.25;;;7.91;100.00
42587;BME280;28216;53.362;-6.288;2023-02-28T01:13:42;103495.16;;;7.90;100.00
42587;BME280;28216;53.362;-6.288;2023-02-28T01:16:07;103498.69;;;7.89;100.00
42587;BME280;28216;53.362;-6.288;2023-02-28T01:18:33;103493.41;;;7.91;100.00
42587;BME280;28216;53.362;-6.288;2023-02-28T01:21:03;103498.78;;;7.88;100.00
42587;BME280;28216;53.362;-6.288;2023-02-28T01:23:29;103494.31;;;7.90;100.00
42587;BME280;28216;53.362;-6.288;2023-02-28T01:25:54;103496.94;;;7.90;100.00
42587;BME280;28216;53.362;-6.288;2023-02-28T01:28:20;103497.78;;;7.90;100.00
42587;BME280;28216;53.362;-6.288;2023-02-28T01:30:50;103489.94;;;7.90;100.00
42587;BME280;28216;53.362;-6.288;2023-02-28T01:33:15;103490.84;;;7.89;100.00
42587;BME280;28216;53.362;-6.288;2023-02-28T01:35:41;103489.94;;;7.90;100.00
42587;BME280;28216;53.362;-6.288;2023-02-28T01:38:06;103499.53;;;7.90;100.00
42587;BME280;28216;53.362;-6.288;2023-02-28T01:40:32;103499.47;;;7.91;100.00
42587;BME280;28216;53.362;-6.288;2023-02-28T01:42:57;103498.69;;;7.89;100.00
42587;BME280;28216;53.362;-6.288;2023-02-28T01:45:30;103497.78;;;7.90;100.00
42587;BME280;28216;53.362;-6.288;2023-02-28T01:48:08;103493.47;;;7.89;100.00
42587;BME280;28216;53.362;-6.288;2023-02-28T01:50:41;103498.78;;;7.88;100.00
42587;BME280;28216;53.362;-6.288;2023-02-28T01:53:14;103499.69;;;7.87;100.00
42587;BME280;28216;53.362;-6.288;2023-02-28T01:55:46;103496.16;;;7.88;100.00
42587;BME280;28216;53.362;-6.288;2023-02-28T01:58:12;103489.25;;;7.87;100.00
42587;BME280;28216;53.362;-6.288;2023-02-28T02:00:38;103492.69;;;7.87;100.00
42587;BME280;28216;53.362;-6.288;2023-02-28T02:03:12;103490.16;;;7.86;100.00
42587;BME280;28216;53.362;-6.288;2023-02-28T02:05:39;103490.25;;;7.84;100.00
42587;BME280;28216;53.362;-6.288;2023-02-28T02:08:15;103491.16;;;7.83;100.00
42587;BME280;28216;53.362;-6.288;2023-02-28T02:10:47;103492.00;;;7.84;100.00
42587;BME280;28216;53.362;-6.288;2023-02-28T02:16:18;103489.31;;;7.85;100.00
42587;BME280;28216;53.362;-6.288;2023-02-28T02:18:54;103491.94;;;7.85;100.00
42587;BME280;28216;53.362;-6.288;2023-02-28T02:35:56;103499.53;;;7.90;100.00
42587;BME280;28216;53.362;-6.288;2023-02-28T02:38:56;103499.47;;;7.91;100.00
42587;BME280;28216;53.362;-6.288;2023-02-28T02:44:04;103493.47;;;7.89;100.00
42587;BME280;28216;53.362;-6.288;2023-02-28T02:46:34;103483.09;;;7.88;100.00
42587;BME280;28216;53.362;-6.288;2023-02-28T02:49:06;103485.63;;;7.89;100.00
42587;BME280;28216;53.362;-6.288;2023-02-28T02:51:35;103483.88;;;7.90;100.00
42587;BME280;28216;53.362;-6.288;2023-02-28T02:54:10;103486.41;;;7.91;100.00
42587;BME280;28216;53.362;-6.288;2023-02-28T02:56:42;103489.78;;;7.93;100.00
42587;BME280;28216;53.362;-6.288;2023-02-28T02:59:11;103488.88;;;7.94;100.00
42587;BME280;28216;53.362;-6.288;2023-02-28T03:01:40;103488.03;;;7.94;100.00
42587;BME280;28216;53.362;-6.288;2023-02-28T03:04:19;103481.88;;;7.95;100.00
42587;BME280;28216;53.362;-6.288;2023-02-28T03:06:45;103488.78;;;7.96;100.00
42587;BME280;28216;53.362;-6.288;2023-02-28T03:09:10;103482.56;;;7.98;100.00
42587;BME280;28216;53.362;-6.288;2023-02-28T03:11:37;103479.09;;;7.98;100.00
42587;BME280;28216;53.362;-6.288;2023-02-28T03:14:13;103480.88;;;7.97;100.00
42587;BME280;28216;53.362;-6.288;2023-02-28T03:17:13;103479.97;;;7.98;100.00
42587;BME280;28216;53.362;-6.288;2023-02-28T03:19:52;103488.78;;;7.96;100.00
42587;BME280;28216;53.362;-6.288;2023-02-28T03:22:48;103481.88;;;7.95;100.00
42587;BME280;28216;53.362;-6.288;2023-02-28T03:33:11;103499.31;;;7.94;100.00
42587;BME280;28216;53.362;-6.288;2023-02-28T03:35:43;103490.72;;;7.92;100.00
42587;BME280;28216;53.362;-6.288;2023-02-28T03:38:16;103494.16;;;7.93;100.00
42587;BME280;28216;53.362;-6.288;2023-02-28T03:40:50;103485.47;;;7.92;100.00
42587;BME280;28216;53.362;-6.288;2023-02-28T03:43:22;103497.69;;;7.92;100.00
42587;BME280;28216;53.362;-6.288;2023-02-28T03:45:50;103496.84;;;7.91;100.00
42587;BME280;28216;53.362;-6.288;2023-02-28T03:50:44;103502.84;;;7.93;100.00
42587;BME280;28216;53.362;-6.288;2023-02-28T03:53:12;103497.63;;;7.93;100.00
42587;BME280;28216;53.362;-6.288;2023-02-28T03:55:42;103504.63;;;7.93;100.00
42587;BME280;28216;53.362;-6.288;2023-02-28T04:00:50;103503.69;;;7.94;100.00
42587;BME280;28216;53.362;-6.288;2023-02-28T04:03:19;103495.94;;;7.92;100.00
42587;BME280;28216;53.362;-6.288;2023-02-28T04:05:50;103504.63;;;7.93;100.00
42587;BME280;28216;53.362;-6.288;2023-02-28T04:08:16;103507.31;;;7.91;100.00
42587;BME280;28216;53.362;-6.288;2023-02-28T04:10:45;103502.00;;;7.93;100.00
42587;BME280;28216;53.362;-6.288;2023-02-28T04:13:12;103501.16;;;7.92;100.00
42587;BME280;28216;53.362;-6.288;2023-02-28T04:15:38;103505.53;;;7.92;100.00
42587;BME280;28216;53.362;-6.288;2023-02-28T04:18:03;103499.47;;;7.91;100.00
42587;BME280;28216;53.362;-6.288;2023-02-28T04:20:28;103508.22;;;7.90;100.00
42587;BME280;28216;53.362;-6.288;2023-02-28T04:22:54;103508.22;;;7.90;100.00
42587;BME280;28216;53.362;-6.288;2023-02-28T04:25:19;103509.16;;;7.89;100.00
42587;BME280;28216;53.362;-6.288;2023-02-28T04:27:45;103511.75;;;7.89;100.00
42587;BME280;28216;53.362;-6.288;2023-02-28T04:30:11;103516.97;;;7.89;100.00
42587;BME280;28216;53.362;-6.288;2023-02-28T04:32:36;103521.34;;;7.89;100.00
42587;BME280;28216;53.362;-6.288;2023-02-28T04:35:02;103523.97;;;7.89;100.00
42587;BME280;28216;53.362;-6.288;2023-02-28T04:37:28;103522.97;;;7.91;100.00
42587;BME280;28216;53.362;-6.288;2023-02-28T04:39:54;103521.28;;;7.90;100.00
42587;BME280;28216;53.362;-6.288;2023-02-28T04:42:19;103524.81;;;7.89;100.00
42587;BME280;28216;53.362;-6.288;2023-02-28T04:44:45;103523.13;;;7.88;100.00
42587;BME280;28216;53.362;-6.288;2023-02-28T04:47:11;103533.66;;;7.87;100.00
42587;BME280;28216;53.362;-6.288;2023-02-28T04:49:36;103535.63;;;7.82;100.00
42587;BME280;28216;53.362;-6.288;2023-02-28T04:52:01;103533.09;;;7.80;100.00
42587;BME280;28216;53.362;-6.288;2023-02-28T04:54:27;103535.84;;;7.77;100.00
42587;BME280;28216;53.362;-6.288;2023-02-28T04:56:53;103536.00;;;7.74;100.00
42587;BME280;28216;53.362;-6.288;2023-02-28T04:59:19;103542.28;;;7.70;100.00
42587;BME280;28216;53.362;-6.288;2023-02-28T05:01:47;103544.97;;;7.69;100.00
42587;BME280;28216;53.362;-6.288;2023-02-28T05:04:13;103545.97;;;7.66;100.00
42587;BME280;28216;53.362;-6.288;2023-02-28T05:06:38;103551.34;;;7.63;100.00
42587;BME280;28216;53.362;-6.288;2023-02-28T05:09:03;103553.88;;;7.46;100.00
42587;BME280;28216;53.362;-6.288;2023-02-28T05:11:31;103559.22;;;7.24;100.00
42587;BME280;28216;53.362;-6.288;2023-02-28T05:14:05;103546.97;;;7.06;100.00
42587;BME280;28216;53.362;-6.288;2023-02-28T05:16:31;103558.59;;;6.98;100.00
42587;BME280;28216;53.362;-6.288;2023-02-28T05:18:57;103555.63;;;6.87;100.00
42587;BME280;28216;53.362;-6.288;2023-02-28T05:21:32;103559.41;;;6.80;100.00
42587;BME280;28216;53.362;-6.288;2023-02-28T05:24:04;103560.47;;;6.76;100.00
42587;BME280;28216;53.362;-6.288;2023-02-28T05:26:30;103562.22;;;6.76;100.00
42587;BME280;28216;53.362;-6.288;2023-02-28T05:28:58;103556.94;;;6.77;100.00
42587;BME280;28216;53.362;-6.288;2023-02-28T05:31:24;103557.78;;;6.78;100.00
42587;BME280;28216;53.362;-6.288;2023-02-28T05:33:49;103566.31;;;6.81;100.00
42587;BME280;28216;53.362;-6.288;2023-02-28T05:36:15;103565.41;;;6.82;100.00
42587;BME280;28216;53.362;-6.288;2023-02-28T05:38:40;103566.13;;;6.86;100.00
42587;BME280;28216;53.362;-6.288;2023-02-28T05:41:10;103564.44;;;6.85;100.00
42587;BME280;28216;53.362;-6.288;2023-02-28T05:43:36;103562.78;;;6.82;100.00
42587;BME280;28216;53.362;-6.288;2023-02-28T05:46:04;103562.94;;;6.79;100.00
42587;BME280;28216;53.362;-6.288;2023-02-28T05:48:30;103569.13;;;6.77;100.00
42587;BME280;28216;53.362;-6.288;2023-02-28T05:50:57;103574.34;;;6.77;100.00
42587;BME280;28216;53.362;-6.288;2023-02-28T05:53:22;103571.72;;;6.77;100.00
42587;BME280;28216;53.362;-6.288;2023-02-28T05:55:48;103573.28;;;6.81;100.00
42587;BME280;28216;53.362;-6.288;2023-02-28T05:58:13;103564.63;;;6.80;100.00
42587;BME280;28216;53.362;-6.288;2023-02-28T06:00:39;103570.63;;;6.82;100.00
42587;BME280;28216;53.362;-6.288;2023-02-28T06:03:04;103570.56;;;6.84;100.00
42587;BME280;28216;53.362;-6.288;2023-02-28T06:05:30;103568.78;;;6.84;100.00
42587;BME280;28216;53.362;-6.288;2023-02-28T06:07:55;103566.44;;;6.78;100.00
42587;BME280;28216;53.362;-6.288;2023-02-28T06:10:20;103568.16;;;6.79;100.00
42587;BME280;28216;53.362;-6.288;2023-02-28T06:12:46;103563.00;;;6.78;100.00
42587;BME280;28216;53.362;-6.288;2023-02-28T06:15:13;103567.44;;;6.76;100.00
42587;BME280;28216;53.362;-6.288;2023-02-28T06:17:40;103569.13;;;6.77;100.00
42587;BME280;28216;53.362;-6.288;2023-02-28T06:20:07;103573.22;;;6.82;100.00
42587;BME280;28216;53.362;-6.288;2023-02-28T06:22:34;103567.88;;;6.85;100.00
42587;BME280;28216;53.362;-6.288;2023-02-28T06:25:00;103572.13;;;6.88;100.00
42587;BME280;28216;53.362;-6.288;2023-02-28T06:27:26;103571.28;;;6.87;100.00
42587;BME280;28216;53.362;-6.288;2023-02-28T06:29:54;103570.28;;;6.90;100.00
42587;BME280;28216;53.362;-6.288;2023-02-28T06:32:21;103576.41;;;6.89;100.00
42587;BME280;28216;53.362;-6.288;2023-02-28T06:34:46;103578.97;;;6.90;100.00
42587;BME280;28216;53.362;-6.288;2023-02-28T06:37:12;103576.28;;;6.92;100.00
42587;BME280;28216;53.362;-6.288;2023-02-28T06:39:37;103577.19;;;6.91;100.00
42587;BME280;28216;53.362;-6.288;2023-02-28T06:42:03;103585.09;;;6.89;100.00
42587;BME280;28216;53.362;-6.288;2023-02-28T06:44:28;103581.78;;;6.86;100.00
42587;BME280;28216;53.362;-6.288;2023-02-28T06:47:01;103598.41;;;6.83;100.00
42587;BME280;28216;53.362;-6.288;2023-02-28T06:49:32;103596.84;;;6.79;100.00
42587;BME280;28216;53.362;-6.288;2023-02-28T06:51:58;103595.13;;;6.78;100.00
42587;BME280;28216;53.362;-6.288;2023-02-28T06:54:23;103602.91;;;6.80;100.00
42587;BME280;28216;53.362;-6.288;2023-02-28T06:56:49;103603.81;;;6.79;100.00
42587;BME280;28216;53.362;-6.288;2023-02-28T06:59:14;103604.78;;;6.76;100.00
42587;BME280;28216;53.362;-6.288;2023-02-28T07:01:40;103618.66;;;6.77;100.00
42587;BME280;28216;53.362;-6.288;2023-02-28T07:04:06;103615.22;;;6.76;100.00
42587;BME280;28216;53.362;-6.288;2023-02-28T07:06:31;103622.13;;;6.77;100.00
42587;BME280;28216;53.362;-6.288;2023-02-28T07:08:57;103618.09;;;6.70;100.00
42587;BME280;28216;53.362;-6.288;2023-02-28T07:11:25;103616.25;;;6.72;100.00
42587;BME280;28216;53.362;-6.288;2023-02-28T07:13:53;103624.06;;;6.72;100.00
42587;BME280;28216;53.362;-6.288;2023-02-28T07:16:18;103628.44;;;6.72;100.00
42587;BME280;28216;53.362;-6.288;2023-02-28T07:18:44;103628.44;;;6.72;100.00
42587;BME280;28216;53.362;-6.288;2023-02-28T07:21:10;103629.28;;;6.72;100.00
42587;BME280;28216;53.362;-6.288;2023-02-28T07:23:37;103630.22;;;6.71;100.00
42587;BME280;28216;53.362;-6.288;2023-02-28T07:26:04;103622.38;;;6.71;100.00
42587;BME280;28216;53.362;-6.288;2023-02-28T07:28:30;103634.44;;;6.74;100.00
42587;BME280;28216;53.362;-6.288;2023-02-28T07:30:55;103636.00;;;6.78;100.00
42587;BME280;28216;53.362;-6.288;2023-02-28T07:33:21;103641.41;;;6.73;100.00
42587;BME280;28216;53.362;-6.288;2023-02-28T07:35:47;103651.34;;;6.63;100.00
42587;BME280;28216;53.362;-6.288;2023-02-28T07:38:12;103650.69;;;6.58;100.00
42587;BME280;28216;53.362;-6.288;2023-02-28T07:40:47;103655.38;;;6.50;100.00
42587;BME280;28216;53.362;-6.288;2023-02-28T07:43:15;103657.44;;;6.42;100.00
42587;BME280;28216;53.362;-6.288;2023-02-28T07:45:40;103654.03;;;6.40;100.00
42587;BME280;28216;53.362;-6.288;2023-02-28T07:48:06;103649.81;;;6.37;100.00
42587;BME280;28216;53.362;-6.288;2023-02-28T07:50:31;103653.31;;;6.36;100.00
42587;BME280;28216;53.362;-6.288;2023-02-28T07:52:58;103655.06;;;6.36;100.00
42587;BME280;28216;53.362;-6.288;2023-02-28T07:55:24;103657.81;;;6.33;100.00
42587;BME280;28216;53.362;-6.288;2023-02-28T07:57:49;103657.81;;;6.33;100.00
42587;BME280;28216;53.362;-6.288;2023-02-28T08:00:15;103660.41;;;6.33;100.00
42587;BME280;28216;53.362;-6.288;2023-02-28T08:02:41;103663.81;;;6.35;100.00
42587;BME280;28216;53.362;-6.288;2023-02-28T08:05:10;103662.88;;;6.36;100.00
42587;BME280;28216;53.362;-6.288;2023-02-28T08:07:35;103658.59;;;6.35;100.00
42587;BME280;28216;53.362;-6.288;2023-02-28T08:10:01;103664.72;;;6.34;100.00
42587;BME280;28216;53.362;-6.288;2023-02-28T08:12:26;103664.84;;;6.31;100.00
42587;BME280;28216;53.362;-6.288;2023-02-28T08:14:52;103674.41;;;6.30;100.00
42587;BME280;28216;53.362;-6.288;2023-02-28T08:17:17;103672.59;;;6.32;100.00
42587;BME280;28216;53.362;-6.288;2023-02-28T08:19:45;103673.56;;;6.30;100.00
42587;BME280;28216;53.362;-6.288;2023-02-28T08:22:11;103679.75;;;6.27;100.00
42587;BME280;28216;53.362;-6.288;2023-02-28T08:24:37;103681.25;;;6.33;100.00
42587;BME280;28216;53.362;-6.288;2023-02-28T08:27:02;103679.63;;;6.30;100.00
42587;BME280;28216;53.362;-6.288;2023-02-28T08:29:28;103680.34;;;6.34;100.00
42587;BME280;28216;53.362;-6.288;2023-02-28T08:31:55;103673.91;;;6.43;100.00
42587;BME280;28216;53.362;-6.288;2023-02-28T08:34:21;103676.47;;;6.44;100.00
42587;BME280;28216;53.362;-6.288;2023-02-28T08:36:46;103680.66;;;6.48;100.00
42587;BME280;28216;53.362;-6.288;2023-02-28T08:39:20;103682.22;;;6.52;100.00
42587;BME280;28216;53.362;-6.288;2023-02-28T08:51:33;103679.56;;;6.76;100.00
42587;BME280;28216;53.362;-6.288;2023-02-28T08:54:19;103675.00;;;6.81;100.00
42587;BME280;28216;53.362;-6.288;2023-02-28T08:56:45;103685.25;;;6.85;100.00
42587;BME280;28216;53.362;-6.288;2023-02-28T08:59:14;103679.72;;;6.93;100.00
42587;BME280;28216;53.362;-6.288;2023-02-28T09:01:39;103683.81;;;6.98;100.00
42587;BME280;28216;53.362;-6.288;2023-02-28T09:04:12;103683.81;;;6.98;100.00
42587;BME280;28216;53.362;-6.288;2023-02-28T09:06:38;103688.19;;;6.98;100.00
42587;BME280;28216;53.362;-6.288;2023-02-28T09:09:17;103686.75;;;6.91;100.00
42587;BME280;28216;53.362;-6.288;2023-02-28T09:11:45;103690.25;;;6.90;100.00
42587;BME280;28216;53.362;-6.288;2023-02-28T09:14:10;103701.59;;;6.89;100.00
42587;BME280;28216;53.362;-6.288;2023-02-28T09:16:48;103691.84;;;6.94;100.00
42587;BME280;28216;53.362;-6.288;2023-02-28T09:19:27;103697.13;;;6.92;100.00
42587;BME280;28216;53.362;-6.288;2023-02-28T09:21:55;103704.09;;;6.92;100.00
42587;BME280;28216;53.362;-6.288;2023-02-28T09:24:23;103707.53;;;6.92;100.00
42587;BME280;28216;53.362;-6.288;2023-02-28T09:26:48;103703.84;;;6.98;100.00
42587;BME280;28216;53.362;-6.288;2023-02-28T09:29:16;103705.34;;;7.04;100.00
42587;BME280;28216;53.362;-6.288;2023-02-28T09:31:42;103707.09;;;7.03;100.00
42587;BME280;28216;53.362;-6.288;2023-02-28T09:34:08;103705.16;;;7.08;100.00
42587;BME280;28216;53.362;-6.288;2023-02-28T09:36:34;103713.75;;;7.10;100.00
42587;BME280;28216;53.362;-6.288;2023-02-28T09:39:02;103707.22;;;7.20;100.00
42587;BME280;28216;53.362;-6.288;2023-02-28T09:41:36;103706.91;;;7.28;100.00
42587;BME280;28216;53.362;-6.288;2023-02-28T09:44:07;103703.13;;;7.35;100.00
42587;BME280;28216;53.362;-6.288;2023-02-28T09:46:43;103706.50;;;7.37;100.00
42587;BME280;28216;53.362;-6.288;2023-02-28T09:49:19;103702.06;;;7.39;100.00
42587;BME280;28216;53.362;-6.288;2023-02-28T09:52:01;103695.75;;;7.45;100.00
42587;BME280;28216;53.362;-6.288;2023-02-28T09:54:32;103698.03;;;7.52;100.00
42587;BME280;28216;53.362;-6.288;2023-02-28T09:57:35;103695.72;;;7.65;100.00
42587;BME280;28216;53.362;-6.288;2023-02-28T10:05:52;103706.19;;;7.84;100.00
42587;BME280;28216;53.362;-6.288;2023-02-28T10:08:26;103703.66;;;7.82;100.00
42587;BME280;28216;53.362;-6.288;2023-02-28T10:11:07;103698.28;;;7.85;100.00
42587;BME280;28216;53.362;-6.288;2023-02-28T10:16:14;103699.41;;;7.98;100.00
42587;BME280;28216;53.362;-6.288;2023-02-28T10:18:46;103697.00;;;8.13;100.00
42587;BME280;28216;53.362;-6.288;2023-02-28T10:21:20;103699.31;;;8.20;100.00
42587;BME280;28216;53.362;-6.288;2023-02-28T10:23:49;103700.22;;;8.19;100.00
42587;BME280;28216;53.362;-6.288;2023-02-28T10:26:18;103704.06;;;8.11;100.00
42587;BME280;28216;53.362;-6.288;2023-02-28T10:32:21;103706.97;;;8.05;100.00
42587;BME280;28216;53.362;-6.288;2023-02-28T10:37:44;103710.75;;;8.18;100.00
42587;BME280;28216;53.362;-6.288;2023-02-28T10:43:00;103709.69;;;8.41;100.00
42587;BME280;28216;53.362;-6.288;2023-02-28T10:45:28;103715.25;;;8.52;100.00
42587;BME280;28216;53.362;-6.288;2023-02-28T10:50:51;103707.19;;;8.56;100.00
42587;BME280;28216;53.362;-6.288;2023-02-28T10:56:17;103721.34;;;8.52;94.60
42587;BME280;28216;53.362;-6.288;2023-02-28T10:58:52;103726.94;;;8.45;94.79
42587;BME280;28216;53.362;-6.288;2023-02-28T11:09:46;103711.72;;;8.53;96.30
42587;BME280;28216;53.362;-6.288;2023-02-28T11:12:39;103706.41;;;8.54;93.58
42587;BME280;28216;53.362;-6.288;2023-02-28T11:15:26;103704.25;;;8.45;94.93
42587;BME280;28216;53.362;-6.288;2023-02-28T11:18:02;103699.72;;;8.49;92.74
42587;BME280;28216;53.362;-6.288;2023-02-28T11:20:34;103694.56;;;8.47;93.78
42587;BME280;28216;53.362;-6.288;2023-02-28T11:23:03;103698.41;;;8.57;93.42
42587;BME280;28216;53.362;-6.288;2023-02-28T11:25:35;103694.50;;;8.66;93.71
42587;BME280;28216;53.362;-6.288;2023-02-28T11:28:23;103697.97;;;8.67;92.65
42587;BME280;28216;53.362;-6.288;2023-02-28T11:33:44;103702.50;;;8.63;93.11
42587;BME280;28216;53.362;-6.288;2023-02-28T11:36:16;103704.06;;;8.67;91.37
42587;BME280;28216;53.362;-6.288;2023-02-28T11:38:43;103699.75;;;8.66;92.29
42587;BME280;28216;53.362;-6.288;2023-02-28T11:49:21;103710.09;;;8.32;93.26
42587;BME280;28216;53.362;-6.288;2023-02-28T11:57:32;103708.03;;;7.82;95.23
42587;BME280;28216;53.362;-6.288;2023-02-28T12:03:15;103703.72;;;8.00;97.70
42587;BME280;28216;53.362;-6.288;2023-02-28T12:05:46;103710.38;;;8.07;96.97
42587;BME280;28216;53.362;-6.288;2023-02-28T12:14:56;103690.31;;;8.45;95.99
42587;BME280;28216;53.362;-6.288;2023-02-28T12:27:36;103695.72;;;8.59;92.31
42587;BME280;28216;53.362;-6.288;2023-02-28T12:30:22;103687.88;;;8.59;90.20
42587;BME280;28216;53.362;-6.288;2023-02-28T12:33:01;103692.28;;;8.58;90.81
42587;BME280;28216;53.362;-6.288;2023-02-28T12:35:36;103683.66;;;8.56;90.50
42587;BME280;28216;53.362;-6.288;2023-02-28T12:41:11;103674.09;;;8.38;90.01
42587;BME280;28216;53.362;-6.288;2023-02-28T12:43:38;103683.41;;;8.44;90.36
42587;BME280;28216;53.362;-6.288;2023-02-28T12:46:11;103682.69;;;8.40;89.33
42587;BME280;28216;53.362;-6.288;2023-02-28T12:48:40;103680.94;;;8.22;88.79
42587;BME280;28216;53.362;-6.288;2023-02-28T12:51:08;103680.28;;;8.17;88.14
42587;BME280;28216;53.362;-6.288;2023-02-28T12:56:17;103671.72;;;8.13;88.09
42587;BME280;28216;53.362;-6.288;2023-02-28T12:58:49;103672.88;;;8.26;88.14
42587;BME280;28216;53.362;-6.288;2023-02-28T13:01:36;103673.16;;;8.39;88.12
42587;BME280;28216;53.362;-6.288;2023-02-28T13:10:12;103665.81;;;8.28;88.77
42587;BME280;28216;53.362;-6.288;2023-02-28T13:12:51;103660.72;;;8.25;88.69
42587;BME280;28216;53.362;-6.288;2023-02-28T13:15:27;103663.75;;;8.16;87.79
42587;BME280;28216;53.362;-6.288;2023-02-28T13:17:59;103656.25;;;8.09;87.38
42587;BME280;28216;53.362;-6.288;2023-02-28T13:20:29;103665.31;;;8.02;87.85
42587;BME280;28216;53.362;-6.288;2023-02-28T13:23:01;103661.22;;;7.96;88.26
42587;BME280;28216;53.362;-6.288;2023-02-28T13:28:00;103655.22;;;7.94;88.19
42587;BME280;28216;53.362;-6.288;2023-02-28T13:36:28;103652.97;;;7.86;87.86
42587;BME280;28216;53.362;-6.288;2023-02-28T13:39:02;103649.56;;;7.84;88.71
42587;BME280;28216;53.362;-6.288;2023-02-28T13:44:04;103650.56;;;7.82;89.61
42587;BME280;28216;53.362;-6.288;2023-02-28T13:55:00;103631.78;;;7.74;89.03
42587;BME280;28216;53.362;-6.288;2023-02-28T13:57:49;103627.41;;;7.74;89.00
42587;BME280;28216;53.362;-6.288;2023-02-28T14:05:47;103624.44;;;7.63;89.08
42587;BME280;28216;53.362;-6.288;2023-02-28T14:08:22;103627.56;;;7.71;89.27
42587;BME280;28216;53.362;-6.288;2023-02-28T14:11:15;103625.50;;;7.78;88.20
42587;BME280;28216;53.362;-6.288;2023-02-28T14:17:21;103635.66;;;7.84;88.34
42587;BME280;28216;53.362;-6.288;2023-02-28T14:19:50;103615.69;;;7.83;88.19
42587;BME280;28216;53.362;-6.288;2023-02-28T14:22:58;103618.72;;;7.74;87.47
42587;BME280;28216;53.362;-6.288;2023-02-28T14:25:40;103618.66;;;7.75;88.18
42587;BME280;28216;53.362;-6.288;2023-02-28T14:28:46;103620.13;;;7.81;88.93
42587;BME280;28216;53.362;-6.288;2023-02-28T14:31:27;103611.25;;;7.85;88.18
42587;BME280;28216;53.362;-6.288;2023-02-28T14:36:44;103611.25;;;7.85;87.82
42587;BME280;28216;53.362;-6.288;2023-02-28T14:39:14;103609.41;;;7.87;87.67
42587;BME280;28216;53.362;-6.288;2023-02-28T14:41:43;103615.69;;;7.83;87.88
42587;BME280;28216;53.362;-6.288;2023-02-28T14:44:17;103612.09;;;7.85;87.61
42587;BME280;28216;53.362;-6.288;2023-02-28T14:46:44;103622.47;;;7.87;87.38
42587;BME280;28216;53.362;-6.288;2023-02-28T14:51:49;103613.72;;;7.88;87.80
42587;BME280;28216;53.362;-6.288;2023-02-28T14:54:35;103613.50;;;7.92;88.05
42587;BME280;28216;53.362;-6.288;2023-02-28T14:57:04;103611.16;;;7.86;86.50
42587;BME280;28216;53.362;-6.288;2023-02-28T15:02:42;103606.16;;;7.82;87.99
42587;BME280;28216;53.362;-6.288;2023-02-28T15:07:47;103604.25;;;7.85;88.01
42587;BME280;28216;53.362;-6.288;2023-02-28T15:12:40;103598.31;;;7.82;87.34
42587;BME280;28216;53.362;-6.288;2023-02-28T15:15:13;103602.69;;;7.81;87.21
42587;BME280;28216;53.362;-6.288;2023-02-28T15:17:39;103604.75;;;7.75;87.42
42587;BME280;28216;53.362;-6.288;2023-02-28T15:20:11;103603.19;;;7.71;88.29
42587;BME280;28216;53.362;-6.288;2023-02-28T15:22:39;103605.03;;;7.69;89.24
42587;BME280;28216;53.362;-6.288;2023-02-28T15:25:13;103594.53;;;7.70;89.18
42587;BME280;28216;53.362;-6.288;2023-02-28T15:27:47;103596.78;;;7.78;89.36
42587;BME280;28216;53.362;-6.288;2023-02-28T15:30:20;103599.59;;;7.73;88.82
42587;BME280;28216;53.362;-6.288;2023-02-28T15:33:03;103597.06;;;7.72;88.72
42587;BME280;28216;53.362;-6.288;2023-02-28T15:36:18;103598.75;;;7.73;88.73
42587;BME280;28216;53.362;-6.288;2023-02-28T15:38:50;103593.69;;;7.70;88.77
42587;BME280;28216;53.362;-6.288;2023-02-28T15:41:45;103595.78;;;7.61;87.59